sensor_id;sensor_type;location;lat;lon;timestamp;P1;durP1;ratioP1;P2;durP2;ratioP2
51854;SDS011;37895;53.240;6.572;2023-07-16T00:01:00;11.32;;;4.07;;
51854;SDS011;37895;53.240;6.572;2023-07-16T00:03:26;8.57;;;3.25;;
51854;SDS011;37895;53.240;6.572;2023-07-16T00:05:52;10.52;;;3.35;;
51854;SDS011;37895;53.240;6.572;2023-07-16T00:08:17;8.00;;;3.60;;
51854;SDS011;37895;53.240;6.572;2023-07-16T00:10:43;9.15;;;3.28;;
51854;SDS011;37895;53.240;6.572;2023-07-16T00:13:08;9.82;;;3.65;;
51854;SDS011;37895;53.240;6.572;2023-07-16T00:15:34;9.68;;;3.53;;
51854;SDS011;37895;53.240;6.572;2023-07-16T00:18:00;12.43;;;3.30;;
51854;SDS011;37895;53.240;6.572;2023-07-16T00:20:25;8.40;;;3.42;;
51854;SDS011;37895;53.240;6.572;2023-07-16T00:22:51;9.65;;;4.13;;
51854;SDS011;37895;53.240;6.572;2023-07-16T00:25:17;9.10;;;3.42;;
51854;SDS011;37895;53.240;6.572;2023-07-16T00:27:43;11.93;;;3.33;;
51854;SDS011;37895;53.240;6.572;2023-07-16T00:30:09;12.05;;;3.42;;
51854;SDS011;37895;53.240;6.572;2023-07-16T00:32:34;9.90;;;3.38;;
51854;SDS011;37895;53.240;6.572;2023-07-16T00:35:00;7.75;;;3.25;;
51854;SDS011;37895;53.240;6.572;2023-07-16T00:37:27;8.65;;;3.60;;
51854;SDS011;37895;53.240;6.572;2023-07-16T00:39:52;9.95;;;3.40;;
51854;SDS011;37895;53.240;6.572;2023-07-16T00:42:18;10.65;;;3.67;;
51854;SDS011;37895;53.240;6.572;2023-07-16T00:44:44;9.82;;;3.83;;
51854;SDS011;37895;53.240;6.572;2023-07-16T00:47:10;8.35;;;3.70;;
51854;SDS011;37895;53.240;6.572;2023-07-16T00:49:36;8.00;;;3.38;;
51854;SDS011;37895;53.240;6.572;2023-07-16T00:52:03;10.60;;;4.22;;
51854;SDS011;37895;53.240;6.572;2023-07-16T00:54:32;14.45;;;4.03;;
51854;SDS011;37895;53.240;6.572;2023-07-16T00:56:58;9.30;;;3.97;;
51854;SDS011;37895;53.240;6.572;2023-07-16T00:59:23;9.30;;;3.50;;
51854;SDS011;37895;53.240;6.572;2023-07-16T01:01:49;9.07;;;3.63;;
51854;SDS011;37895;53.240;6.572;2023-07-16T01:04:15;13.35;;;5.28;;
51854;SDS011;37895;53.240;6.572;2023-07-16T01:06:41;11.05;;;3.72;;
51854;SDS011;37895;53.240;6.572;2023-07-16T01:09:18;10.18;;;4.07;;
51854;SDS011;37895;53.240;6.572;2023-07-16T01:11:45;10.85;;;3.70;;
51854;SDS011;37895;53.240;6.572;2023-07-16T01:14:13;11.25;;;3.63;;
51854;SDS011;37895;53.240;6.572;2023-07-16T01:16:41;10.65;;;4.38;;
51854;SDS011;37895;53.240;6.572;2023-07-16T01:19:07;8.60;;;3.70;;
51854;SDS011;37895;53.240;6.572;2023-07-16T01:27:14;11.15;;;4.50;;
51854;SDS011;37895;53.240;6.572;2023-07-16T01:30:04;14.70;;;4.75;;
51854;SDS011;37895;53.240;6.572;2023-07-16T01:32:33;11.82;;;4.00;;
51854;SDS011;37895;53.240;6.572;2023-07-16T01:35:01;10.68;;;4.00;;
51854;SDS011;37895;53.240;6.572;2023-07-16T01:37:27;10.57;;;4.15;;
51854;SDS011;37895;53.240;6.572;2023-07-16T01:39:53;10.00;;;4.20;;
51854;SDS011;37895;53.240;6.572;2023-07-16T01:42:19;12.07;;;3.85;;
51854;SDS011;37895;53.240;6.572;2023-07-16T01:44:45;13.95;;;4.20;;
51854;SDS011;37895;53.240;6.572;2023-07-16T01:47:11;9.60;;;3.53;;
51854;SDS011;37895;53.240;6.572;2023-07-16T01:49:45;12.10;;;3.65;;
51854;SDS011;37895;53.240;6.572;2023-07-16T01:52:11;17.48;;;3.72;;
51854;SDS011;37895;53.240;6.572;2023-07-16T01:54:37;8.30;;;3.38;;
51854;SDS011;37895;53.240;6.572;2023-07-16T01:57:03;11.85;;;3.60;;
51854;SDS011;37895;53.240;6.572;2023-07-16T01:59:29;9.68;;;4.18;;
51854;SDS011;37895;53.240;6.572;2023-07-16T02:01:55;11.23;;;4.35;;
51854;SDS011;37895;53.240;6.572;2023-07-16T02:04:20;9.25;;;3.92;;
51854;SDS011;37895;53.240;6.572;2023-07-16T02:06:46;9.10;;;3.83;;
51854;SDS011;37895;53.240;6.572;2023-07-16T02:09:13;11.82;;;3.30;;
51854;SDS011;37895;53.240;6.572;2023-07-16T02:11:38;7.20;;;3.20;;
51854;SDS011;37895;53.240;6.572;2023-07-16T02:14:04;9.45;;;3.30;;
51854;SDS011;37895;53.240;6.572;2023-07-16T02:16:30;8.45;;;3.60;;
51854;SDS011;37895;53.240;6.572;2023-07-16T02:18:55;8.02;;;3.10;;
51854;SDS011;37895;53.240;6.572;2023-07-16T02:21:21;8.40;;;3.38;;
51854;SDS011;37895;53.240;6.572;2023-07-16T02:23:46;6.72;;;3.53;;
51854;SDS011;37895;53.240;6.572;2023-07-16T02:26:12;12.20;;;3.85;;
51854;SDS011;37895;53.240;6.572;2023-07-16T02:28:38;7.82;;;3.17;;
51854;SDS011;37895;53.240;6.572;2023-07-16T02:31:03;9.63;;;4.30;;
51854;SDS011;37895;53.240;6.572;2023-07-16T02:33:29;6.82;;;3.25;;
51854;SDS011;37895;53.240;6.572;2023-07-16T02:35:55;9.02;;;3.90;;
51854;SDS011;37895;53.240;6.572;2023-07-16T02:38:20;8.70;;;3.90;;
51854;SDS011;37895;53.240;6.572;2023-07-16T02:40:46;10.32;;;4.30;;
51854;SDS011;37895;53.240;6.572;2023-07-16T02:43:13;8.82;;;3.80;;
51854;SDS011;37895;53.240;6.572;2023-07-16T02:45:39;9.40;;;4.15;;
51854;SDS011;37895;53.240;6.572;2023-07-16T02:48:05;10.20;;;3.85;;
51854;SDS011;37895;53.240;6.572;2023-07-16T02:50:35;10.40;;;5.03;;
51854;SDS011;37895;53.240;6.572;2023-07-16T02:53:03;12.65;;;4.50;;
51854;SDS011;37895;53.240;6.572;2023-07-16T02:55:29;11.32;;;4.50;;
51854;SDS011;37895;53.240;6.572;2023-07-16T02:57:55;10.77;;;4.72;;
51854;SDS011;37895;53.240;6.572;2023-07-16T03:02:46;9.48;;;4.20;;
51854;SDS011;37895;53.240;6.572;2023-07-16T03:05:14;11.05;;;4.78;;
51854;SDS011;37895;53.240;6.572;2023-07-16T03:07:40;11.27;;;4.68;;
51854;SDS011;37895;53.240;6.572;2023-07-16T03:10:06;15.18;;;4.68;;
51854;SDS011;37895;53.240;6.572;2023-07-16T03:12:31;10.75;;;4.25;;
51854;SDS011;37895;53.240;6.572;2023-07-16T03:14:57;9.80;;;4.50;;
51854;SDS011;37895;53.240;6.572;2023-07-16T03:17:23;10.90;;;4.40;;
51854;SDS011;37895;53.240;6.572;2023-07-16T03:19:48;10.85;;;4.70;;
51854;SDS011;37895;53.240;6.572;2023-07-16T03:22:14;9.35;;;4.88;;
51854;SDS011;37895;53.240;6.572;2023-07-16T03:24:40;8.40;;;5.15;;
51854;SDS011;37895;53.240;6.572;2023-07-16T03:27:06;10.75;;;5.15;;
51854;SDS011;37895;53.240;6.572;2023-07-16T03:29:35;10.07;;;4.47;;
51854;SDS011;37895;53.240;6.572;2023-07-16T03:32:03;9.77;;;4.68;;
51854;SDS011;37895;53.240;6.572;2023-07-16T03:34:29;11.48;;;5.10;;
51854;SDS011;37895;53.240;6.572;2023-07-16T03:36:55;16.33;;;4.95;;
51854;SDS011;37895;53.240;6.572;2023-07-16T03:39:20;8.65;;;4.93;;
51854;SDS011;37895;53.240;6.572;2023-07-16T03:41:46;11.10;;;5.45;;
51854;SDS011;37895;53.240;6.572;2023-07-16T03:44:12;9.75;;;4.78;;
51854;SDS011;37895;53.240;6.572;2023-07-16T03:46:37;9.98;;;4.88;;
51854;SDS011;37895;53.240;6.572;2023-07-16T03:49:03;15.70;;;4.80;;
51854;SDS011;37895;53.240;6.572;2023-07-16T03:51:32;13.30;;;5.38;;
51854;SDS011;37895;53.240;6.572;2023-07-16T03:53:58;15.50;;;5.63;;
51854;SDS011;37895;53.240;6.572;2023-07-16T03:56:23;10.30;;;5.32;;
51854;SDS011;37895;53.240;6.572;2023-07-16T03:58:49;8.75;;;4.47;;
51854;SDS011;37895;53.240;6.572;2023-07-16T04:01:14;12.23;;;5.05;;
51854;SDS011;37895;53.240;6.572;2023-07-16T04:03:40;14.15;;;6.13;;
51854;SDS011;37895;53.240;6.572;2023-07-16T04:06:07;13.50;;;6.40;;
51854;SDS011;37895;53.240;6.572;2023-07-16T04:08:37;11.18;;;5.18;;
51854;SDS011;37895;53.240;6.572;2023-07-16T04:11:04;11.05;;;5.28;;
51854;SDS011;37895;53.240;6.572;2023-07-16T04:13:30;11.18;;;5.00;;
51854;SDS011;37895;53.240;6.572;2023-07-16T04:15:56;9.48;;;5.45;;
51854;SDS011;37895;53.240;6.572;2023-07-16T04:18:23;9.65;;;5.15;;
51854;SDS011;37895;53.240;6.572;2023-07-16T04:20:52;11.55;;;5.35;;
51854;SDS011;37895;53.240;6.572;2023-07-16T04:25:43;12.27;;;5.50;;
51854;SDS011;37895;53.240;6.572;2023-07-16T04:28:12;13.57;;;5.70;;
51854;SDS011;37895;53.240;6.572;2023-07-16T04:30:38;10.60;;;5.78;;
51854;SDS011;37895;53.240;6.572;2023-07-16T04:33:04;12.50;;;5.78;;
51854;SDS011;37895;53.240;6.572;2023-07-16T04:35:29;11.40;;;6.10;;
51854;SDS011;37895;53.240;6.572;2023-07-16T04:37:56;9.98;;;5.80;;
51854;SDS011;37895;53.240;6.572;2023-07-16T04:40:21;13.95;;;6.28;;
51854;SDS011;37895;53.240;6.572;2023-07-16T04:42:47;11.75;;;5.50;;
51854;SDS011;37895;53.240;6.572;2023-07-16T04:45:13;12.93;;;5.88;;
51854;SDS011;37895;53.240;6.572;2023-07-16T04:47:38;13.52;;;5.95;;
51854;SDS011;37895;53.240;6.572;2023-07-16T04:50:04;13.38;;;6.22;;
51854;SDS011;37895;53.240;6.572;2023-07-16T04:52:31;14.52;;;6.28;;
51854;SDS011;37895;53.240;6.572;2023-07-16T04:54:56;13.13;;;6.82;;
51854;SDS011;37895;53.240;6.572;2023-07-16T04:57:22;17.27;;;6.55;;
51854;SDS011;37895;53.240;6.572;2023-07-16T04:59:48;11.23;;;5.90;;
51854;SDS011;37895;53.240;6.572;2023-07-16T05:02:13;12.23;;;5.90;;
51854;SDS011;37895;53.240;6.572;2023-07-16T05:04:41;8.68;;;6.22;;
51854;SDS011;37895;53.240;6.572;2023-07-16T05:07:09;12.60;;;6.70;;
51854;SDS011;37895;53.240;6.572;2023-07-16T05:09:34;12.05;;;6.20;;
51854;SDS011;37895;53.240;6.572;2023-07-16T05:12:00;11.20;;;6.00;;
51854;SDS011;37895;53.240;6.572;2023-07-16T05:14:26;10.23;;;6.03;;
51854;SDS011;37895;53.240;6.572;2023-07-16T05:16:53;12.32;;;6.38;;
51854;SDS011;37895;53.240;6.572;2023-07-16T05:19:20;12.38;;;6.45;;
51854;SDS011;37895;53.240;6.572;2023-07-16T05:21:45;14.80;;;5.95;;
51854;SDS011;37895;53.240;6.572;2023-07-16T05:24:11;12.93;;;6.65;;
51854;SDS011;37895;53.240;6.572;2023-07-16T05:26:37;15.13;;;6.43;;
51854;SDS011;37895;53.240;6.572;2023-07-16T05:29:03;12.00;;;6.57;;
51854;SDS011;37895;53.240;6.572;2023-07-16T05:31:28;10.13;;;5.85;;
51854;SDS011;37895;53.240;6.572;2023-07-16T05:33:54;13.55;;;6.20;;
51854;SDS011;37895;53.240;6.572;2023-07-16T05:36:20;12.80;;;6.20;;
51854;SDS011;37895;53.240;6.572;2023-07-16T05:38:45;13.77;;;5.43;;
51854;SDS011;37895;53.240;6.572;2023-07-16T05:41:11;11.68;;;6.13;;
51854;SDS011;37895;53.240;6.572;2023-07-16T05:43:36;11.40;;;5.18;;
51854;SDS011;37895;53.240;6.572;2023-07-16T05:46:02;12.50;;;5.93;;
51854;SDS011;37895;53.240;6.572;2023-07-16T05:48:30;12.98;;;5.18;;
51854;SDS011;37895;53.240;6.572;2023-07-16T05:50:56;11.30;;;5.57;;
51854;SDS011;37895;53.240;6.572;2023-07-16T05:53:21;8.63;;;5.38;;
51854;SDS011;37895;53.240;6.572;2023-07-16T05:55:47;10.43;;;5.43;;
51854;SDS011;37895;53.240;6.572;2023-07-16T05:58:14;10.25;;;5.13;;
51854;SDS011;37895;53.240;6.572;2023-07-16T06:00:41;9.57;;;4.90;;
51854;SDS011;37895;53.240;6.572;2023-07-16T06:03:06;10.73;;;5.00;;
51854;SDS011;37895;53.240;6.572;2023-07-16T06:05:32;8.02;;;4.40;;
51854;SDS011;37895;53.240;6.572;2023-07-16T06:07:59;8.88;;;4.30;;
51854;SDS011;37895;53.240;6.572;2023-07-16T06:10:25;9.88;;;4.70;;
51854;SDS011;37895;53.240;6.572;2023-07-16T06:12:52;9.88;;;5.13;;
51854;SDS011;37895;53.240;6.572;2023-07-16T06:15:18;17.98;;;5.55;;
51854;SDS011;37895;53.240;6.572;2023-07-16T06:17:44;9.35;;;4.90;;
51854;SDS011;37895;53.240;6.572;2023-07-16T06:20:09;11.50;;;5.22;;
51854;SDS011;37895;53.240;6.572;2023-07-16T06:22:35;8.85;;;4.60;;
51854;SDS011;37895;53.240;6.572;2023-07-16T06:25:01;11.55;;;4.95;;
51854;SDS011;37895;53.240;6.572;2023-07-16T06:27:27;10.52;;;4.90;;
51854;SDS011;37895;53.240;6.572;2023-07-16T06:29:53;9.75;;;4.78;;
51854;SDS011;37895;53.240;6.572;2023-07-16T06:32:18;10.48;;;5.18;;
51854;SDS011;37895;53.240;6.572;2023-07-16T06:34:45;14.55;;;5.80;;
51854;SDS011;37895;53.240;6.572;2023-07-16T06:37:10;11.38;;;5.03;;
51854;SDS011;37895;53.240;6.572;2023-07-16T06:39:36;11.45;;;5.13;;
51854;SDS011;37895;53.240;6.572;2023-07-16T06:42:02;11.63;;;5.38;;
51854;SDS011;37895;53.240;6.572;2023-07-16T06:44:27;13.63;;;5.97;;
51854;SDS011;37895;53.240;6.572;2023-07-16T06:46:53;11.32;;;5.25;;
51854;SDS011;37895;53.240;6.572;2023-07-16T06:49:19;10.10;;;5.13;;
51854;SDS011;37895;53.240;6.572;2023-07-16T06:51:46;12.80;;;6.22;;
51854;SDS011;37895;53.240;6.572;2023-07-16T06:54:12;10.20;;;5.68;;
51854;SDS011;37895;53.240;6.572;2023-07-16T06:56:37;11.73;;;5.45;;
51854;SDS011;37895;53.240;6.572;2023-07-16T06:59:03;14.38;;;6.13;;
51854;SDS011;37895;53.240;6.572;2023-07-16T07:01:28;11.60;;;5.30;;
51854;SDS011;37895;53.240;6.572;2023-07-16T07:03:54;9.77;;;5.20;;
51854;SDS011;37895;53.240;6.572;2023-07-16T07:06:20;13.60;;;6.25;;
51854;SDS011;37895;53.240;6.572;2023-07-16T07:08:46;11.32;;;5.90;;
51854;SDS011;37895;53.240;6.572;2023-07-16T07:11:12;11.15;;;5.25;;
51854;SDS011;37895;53.240;6.572;2023-07-16T07:13:37;9.27;;;5.22;;
51854;SDS011;37895;53.240;6.572;2023-07-16T07:16:03;10.23;;;6.30;;
51854;SDS011;37895;53.240;6.572;2023-07-16T07:18:29;10.95;;;6.38;;
51854;SDS011;37895;53.240;6.572;2023-07-16T07:20:55;9.77;;;5.60;;
51854;SDS011;37895;53.240;6.572;2023-07-16T07:23:20;13.80;;;5.55;;
51854;SDS011;37895;53.240;6.572;2023-07-16T07:25:49;9.05;;;5.72;;
51854;SDS011;37895;53.240;6.572;2023-07-16T07:28:18;12.65;;;5.95;;
51854;SDS011;37895;53.240;6.572;2023-07-16T07:33:10;11.95;;;6.40;;
51854;SDS011;37895;53.240;6.572;2023-07-16T07:38:02;9.70;;;5.68;;
51854;SDS011;37895;53.240;6.572;2023-07-16T07:40:27;11.40;;;5.90;;
51854;SDS011;37895;53.240;6.572;2023-07-16T07:42:53;10.80;;;6.10;;
51854;SDS011;37895;53.240;6.572;2023-07-16T07:45:19;14.15;;;6.53;;
51854;SDS011;37895;53.240;6.572;2023-07-16T07:47:44;10.50;;;5.72;;
51854;SDS011;37895;53.240;6.572;2023-07-16T07:50:10;12.05;;;5.82;;
51854;SDS011;37895;53.240;6.572;2023-07-16T07:52:36;12.30;;;6.13;;
51854;SDS011;37895;53.240;6.572;2023-07-16T07:55:02;7.80;;;5.68;;
51854;SDS011;37895;53.240;6.572;2023-07-16T07:57:28;8.55;;;5.57;;
51854;SDS011;37895;53.240;6.572;2023-07-16T07:59:55;7.97;;;5.30;;
51854;SDS011;37895;53.240;6.572;2023-07-16T08:02:24;10.93;;;5.72;;
51854;SDS011;37895;53.240;6.572;2023-07-16T08:04:53;11.18;;;5.57;;
51854;SDS011;37895;53.240;6.572;2023-07-16T08:07:20;8.45;;;5.43;;
51854;SDS011;37895;53.240;6.572;2023-07-16T08:09:46;11.82;;;5.75;;
51854;SDS011;37895;53.240;6.572;2023-07-16T08:12:12;8.90;;;5.80;;
51854;SDS011;37895;53.240;6.572;2023-07-16T08:14:38;8.77;;;4.97;;
51854;SDS011;37895;53.240;6.572;2023-07-16T08:17:04;13.77;;;5.18;;
51854;SDS011;37895;53.240;6.572;2023-07-16T08:19:30;10.95;;;5.43;;
51854;SDS011;37895;53.240;6.572;2023-07-16T08:21:56;13.63;;;5.57;;
51854;SDS011;37895;53.240;6.572;2023-07-16T08:24:21;9.75;;;5.47;;
51854;SDS011;37895;53.240;6.572;2023-07-16T08:26:47;11.43;;;5.18;;
51854;SDS011;37895;53.240;6.572;2023-07-16T08:29:13;12.85;;;5.55;;
51854;SDS011;37895;53.240;6.572;2023-07-16T08:31:38;10.25;;;5.82;;
51854;SDS011;37895;53.240;6.572;2023-07-16T08:34:05;8.10;;;5.30;;
51854;SDS011;37895;53.240;6.572;2023-07-16T08:36:32;9.95;;;5.35;;
51854;SDS011;37895;53.240;6.572;2023-07-16T08:38:58;13.30;;;7.03;;
51854;SDS011;37895;53.240;6.572;2023-07-16T08:41:24;9.80;;;6.22;;
51854;SDS011;37895;53.240;6.572;2023-07-16T08:43:50;13.50;;;6.22;;
51854;SDS011;37895;53.240;6.572;2023-07-16T08:48:42;10.98;;;6.00;;
51854;SDS011;37895;53.240;6.572;2023-07-16T08:53:34;16.93;;;6.90;;
51854;SDS011;37895;53.240;6.572;2023-07-16T08:56:00;11.52;;;6.28;;
51854;SDS011;37895;53.240;6.572;2023-07-16T08:58:27;13.90;;;6.65;;
51854;SDS011;37895;53.240;6.572;2023-07-16T09:00:54;11.95;;;6.35;;
51854;SDS011;37895;53.240;6.572;2023-07-16T09:03:21;14.20;;;5.72;;
51854;SDS011;37895;53.240;6.572;2023-07-16T09:05:47;10.32;;;5.97;;
51854;SDS011;37895;53.240;6.572;2023-07-16T09:08:13;14.88;;;6.00;;
51854;SDS011;37895;53.240;6.572;2023-07-16T09:10:42;15.30;;;6.43;;
51854;SDS011;37895;53.240;6.572;2023-07-16T09:13:08;9.40;;;5.80;;
51854;SDS011;37895;53.240;6.572;2023-07-16T09:18:00;12.35;;;5.82;;
51854;SDS011;37895;53.240;6.572;2023-07-16T09:20:26;11.25;;;5.68;;
51854;SDS011;37895;53.240;6.572;2023-07-16T09:22:56;10.13;;;5.40;;
51854;SDS011;37895;53.240;6.572;2023-07-16T09:25:26;7.85;;;4.93;;
51854;SDS011;37895;53.240;6.572;2023-07-16T09:27:57;8.00;;;5.00;;
51854;SDS011;37895;53.240;6.572;2023-07-16T09:30:23;11.10;;;4.95;;
51854;SDS011;37895;53.240;6.572;2023-07-16T09:32:49;9.43;;;5.03;;
51854;SDS011;37895;53.240;6.572;2023-07-16T09:35:15;11.73;;;6.07;;
51854;SDS011;37895;53.240;6.572;2023-07-16T09:37:42;9.20;;;5.40;;
51854;SDS011;37895;53.240;6.572;2023-07-16T09:40:12;11.05;;;5.22;;
51854;SDS011;37895;53.240;6.572;2023-07-16T09:42:38;10.40;;;5.47;;
51854;SDS011;37895;53.240;6.572;2023-07-16T09:45:05;8.27;;;5.15;;
51854;SDS011;37895;53.240;6.572;2023-07-16T09:47:35;9.55;;;5.10;;
51854;SDS011;37895;53.240;6.572;2023-07-16T09:50:04;9.82;;;4.97;;
51854;SDS011;37895;53.240;6.572;2023-07-16T09:52:30;11.55;;;5.35;;
51854;SDS011;37895;53.240;6.572;2023-07-16T09:54:57;8.48;;;5.25;;
51854;SDS011;37895;53.240;6.572;2023-07-16T09:57:27;6.30;;;4.50;;
51854;SDS011;37895;53.240;6.572;2023-07-16T09:59:58;8.07;;;5.28;;
51854;SDS011;37895;53.240;6.572;2023-07-16T10:02:29;10.05;;;5.45;;
51854;SDS011;37895;53.240;6.572;2023-07-16T10:04:58;7.70;;;5.00;;
51854;SDS011;37895;53.240;6.572;2023-07-16T10:07:24;7.18;;;4.78;;
51854;SDS011;37895;53.240;6.572;2023-07-16T10:12:22;11.00;;;5.10;;
51854;SDS011;37895;53.240;6.572;2023-07-16T10:14:52;9.00;;;5.40;;
51854;SDS011;37895;53.240;6.572;2023-07-16T10:17:24;9.50;;;4.70;;
51854;SDS011;37895;53.240;6.572;2023-07-16T10:20:52;8.25;;;4.93;;
51854;SDS011;37895;53.240;6.572;2023-07-16T10:22:55;9.25;;;4.47;;
51854;SDS011;37895;53.240;6.572;2023-07-16T10:25:22;12.27;;;4.82;;
51854;SDS011;37895;53.240;6.572;2023-07-16T10:27:52;8.07;;;5.00;;
51854;SDS011;37895;53.240;6.572;2023-07-16T10:30:19;11.90;;;4.90;;
51854;SDS011;37895;53.240;6.572;2023-07-16T10:32:45;8.50;;;4.57;;
51854;SDS011;37895;53.240;6.572;2023-07-16T10:37:38;12.77;;;5.30;;
51854;SDS011;37895;53.240;6.572;2023-07-16T10:40:04;12.85;;;4.93;;
51854;SDS011;37895;53.240;6.572;2023-07-16T10:42:34;10.75;;;5.05;;
51854;SDS011;37895;53.240;6.572;2023-07-16T10:45:01;11.45;;;5.32;;
51854;SDS011;37895;53.240;6.572;2023-07-16T10:47:32;10.23;;;5.35;;
51854;SDS011;37895;53.240;6.572;2023-07-16T10:49:58;12.35;;;5.15;;
51854;SDS011;37895;53.240;6.572;2023-07-16T10:52:25;8.60;;;5.10;;
51854;SDS011;37895;53.240;6.572;2023-07-16T10:54:51;7.75;;;5.22;;
51854;SDS011;37895;53.240;6.572;2023-07-16T10:57:19;10.98;;;5.40;;
51854;SDS011;37895;53.240;6.572;2023-07-16T10:59:46;9.48;;;5.57;;
51854;SDS011;37895;53.240;6.572;2023-07-16T11:02:14;11.48;;;5.20;;
51854;SDS011;37895;53.240;6.572;2023-07-16T11:04:41;8.48;;;5.32;;
51854;SDS011;37895;53.240;6.572;2023-07-16T11:07:11;9.32;;;5.00;;
51854;SDS011;37895;53.240;6.572;2023-07-16T11:09:48;6.63;;;4.78;;
51854;SDS011;37895;53.240;6.572;2023-07-16T11:12:15;9.30;;;4.63;;
51854;SDS011;37895;53.240;6.572;2023-07-16T11:14:44;8.52;;;5.07;;
51854;SDS011;37895;53.240;6.572;2023-07-16T11:17:12;7.40;;;4.63;;
51854;SDS011;37895;53.240;6.572;2023-07-16T11:19:39;7.10;;;4.50;;
51854;SDS011;37895;53.240;6.572;2023-07-16T11:22:06;9.77;;;4.57;;
51854;SDS011;37895;53.240;6.572;2023-07-16T11:24:51;9.18;;;5.28;;
51854;SDS011;37895;53.240;6.572;2023-07-16T11:27:26;8.60;;;4.75;;
51854;SDS011;37895;53.240;6.572;2023-07-16T11:29:53;9.07;;;4.50;;
51854;SDS011;37895;53.240;6.572;2023-07-16T11:35:02;6.85;;;4.43;;
51854;SDS011;37895;53.240;6.572;2023-07-16T11:37:30;7.88;;;4.28;;
51854;SDS011;37895;53.240;6.572;2023-07-16T11:40:02;9.77;;;4.60;;
51854;SDS011;37895;53.240;6.572;2023-07-16T11:44:59;9.43;;;4.13;;
51854;SDS011;37895;53.240;6.572;2023-07-16T11:47:25;6.55;;;4.13;;
51854;SDS011;37895;53.240;6.572;2023-07-16T11:49:52;6.90;;;4.30;;
51854;SDS011;37895;53.240;6.572;2023-07-16T11:54:44;10.60;;;4.32;;
51854;SDS011;37895;53.240;6.572;2023-07-16T11:59:35;7.68;;;4.45;;
51854;SDS011;37895;53.240;6.572;2023-07-16T12:02:01;10.63;;;5.18;;
51854;SDS011;37895;53.240;6.572;2023-07-16T12:04:27;9.18;;;5.20;;
51854;SDS011;37895;53.240;6.572;2023-07-16T12:06:53;11.98;;;5.22;;
51854;SDS011;37895;53.240;6.572;2023-07-16T12:09:19;7.63;;;5.07;;
51854;SDS011;37895;53.240;6.572;2023-07-16T12:11:45;10.77;;;4.93;;
51854;SDS011;37895;53.240;6.572;2023-07-16T12:14:10;7.95;;;5.35;;
51854;SDS011;37895;53.240;6.572;2023-07-16T12:16:37;10.13;;;5.40;;
51854;SDS011;37895;53.240;6.572;2023-07-16T12:19:03;8.57;;;4.80;;
51854;SDS011;37895;53.240;6.572;2023-07-16T12:21:30;11.40;;;5.95;;
51854;SDS011;37895;53.240;6.572;2023-07-16T12:23:56;8.77;;;5.25;;
51854;SDS011;37895;53.240;6.572;2023-07-16T12:26:21;8.60;;;5.25;;
51854;SDS011;37895;53.240;6.572;2023-07-16T12:28:47;8.45;;;5.18;;
51854;SDS011;37895;53.240;6.572;2023-07-16T12:31:13;12.52;;;6.05;;
51854;SDS011;37895;53.240;6.572;2023-07-16T12:33:39;12.63;;;6.30;;
51854;SDS011;37895;53.240;6.572;2023-07-16T12:38:30;12.15;;;6.22;;
51854;SDS011;37895;53.240;6.572;2023-07-16T12:40:55;12.05;;;5.72;;
51854;SDS011;37895;53.240;6.572;2023-07-16T12:45:47;11.07;;;5.68;;
51854;SDS011;37895;53.240;6.572;2023-07-16T12:48:12;8.10;;;5.25;;
51854;SDS011;37895;53.240;6.572;2023-07-16T12:53:04;8.15;;;5.50;;
51854;SDS011;37895;53.240;6.572;2023-07-16T12:55:29;8.82;;;5.72;;
51854;SDS011;37895;53.240;6.572;2023-07-16T12:57:56;9.68;;;5.20;;
51854;SDS011;37895;53.240;6.572;2023-07-16T13:02:47;8.88;;;5.10;;
51854;SDS011;37895;53.240;6.572;2023-07-16T13:05:13;11.90;;;5.68;;
51854;SDS011;37895;53.240;6.572;2023-07-16T13:07:38;8.95;;;5.28;;
51854;SDS011;37895;53.240;6.572;2023-07-16T13:12:31;13.32;;;5.47;;
51854;SDS011;37895;53.240;6.572;2023-07-16T13:14:56;6.32;;;4.78;;
51854;SDS011;37895;53.240;6.572;2023-07-16T13:17:22;10.10;;;4.68;;
51854;SDS011;37895;53.240;6.572;2023-07-16T13:19:48;7.43;;;4.57;;
51854;SDS011;37895;53.240;6.572;2023-07-16T13:22:13;13.23;;;4.47;;
51854;SDS011;37895;53.240;6.572;2023-07-16T13:27:05;8.25;;;4.40;;
51854;SDS011;37895;53.240;6.572;2023-07-16T13:29:30;10.27;;;5.18;;
51854;SDS011;37895;53.240;6.572;2023-07-16T13:31:56;12.65;;;4.88;;
51854;SDS011;37895;53.240;6.572;2023-07-16T13:34:22;13.55;;;4.50;;
51854;SDS011;37895;53.240;6.572;2023-07-16T13:36:47;11.02;;;4.78;;
51854;SDS011;37895;53.240;6.572;2023-07-16T13:39:13;8.10;;;4.45;;
51854;SDS011;37895;53.240;6.572;2023-07-16T13:41:39;10.77;;;4.07;;
51854;SDS011;37895;53.240;6.572;2023-07-16T13:46:30;9.63;;;3.58;;
51854;SDS011;37895;53.240;6.572;2023-07-16T13:48:56;9.02;;;3.20;;
51854;SDS011;37895;53.240;6.572;2023-07-16T13:51:22;10.20;;;3.35;;
51854;SDS011;37895;53.240;6.572;2023-07-16T13:53:48;9.43;;;3.22;;
51854;SDS011;37895;53.240;6.572;2023-07-16T13:58:39;8.80;;;2.85;;
51854;SDS011;37895;53.240;6.572;2023-07-16T14:03:30;9.82;;;3.50;;
51854;SDS011;37895;53.240;6.572;2023-07-16T14:08:21;11.73;;;3.22;;
51854;SDS011;37895;53.240;6.572;2023-07-16T14:10:48;13.23;;;3.17;;
51854;SDS011;37895;53.240;6.572;2023-07-16T14:15:40;9.43;;;3.25;;
51854;SDS011;37895;53.240;6.572;2023-07-16T14:20:32;12.60;;;3.55;;
51854;SDS011;37895;53.240;6.572;2023-07-16T14:25:23;10.15;;;2.53;;
51854;SDS011;37895;53.240;6.572;2023-07-16T14:30:15;7.30;;;2.50;;
51854;SDS011;37895;53.240;6.572;2023-07-16T14:32:41;12.02;;;3.05;;
51854;SDS011;37895;53.240;6.572;2023-07-16T14:35:08;13.00;;;2.70;;
51854;SDS011;37895;53.240;6.572;2023-07-16T14:39:59;9.18;;;2.33;;
51854;SDS011;37895;53.240;6.572;2023-07-16T14:44:51;10.93;;;3.00;;
51854;SDS011;37895;53.240;6.572;2023-07-16T14:49:42;6.90;;;2.10;;
51854;SDS011;37895;53.240;6.572;2023-07-16T14:54:33;16.02;;;3.08;;
51854;SDS011;37895;53.240;6.572;2023-07-16T14:57:01;12.13;;;2.92;;
51854;SDS011;37895;53.240;6.572;2023-07-16T14:59:28;16.88;;;2.60;;
51854;SDS011;37895;53.240;6.572;2023-07-16T15:04:19;8.80;;;3.08;;
51854;SDS011;37895;53.240;6.572;2023-07-16T15:09:10;7.70;;;2.35;;
51854;SDS011;37895;53.240;6.572;2023-07-16T15:11:38;8.48;;;2.40;;
51854;SDS011;37895;53.240;6.572;2023-07-16T15:16:30;11.60;;;2.90;;
51854;SDS011;37895;53.240;6.572;2023-07-16T15:21:21;9.90;;;2.42;;
51854;SDS011;37895;53.240;6.572;2023-07-16T15:26:12;8.90;;;2.72;;
51854;SDS011;37895;53.240;6.572;2023-07-16T15:31:04;9.93;;;3.30;;
51854;SDS011;37895;53.240;6.572;2023-07-16T15:33:30;12.43;;;2.72;;
51854;SDS011;37895;53.240;6.572;2023-07-16T15:38:22;8.98;;;2.30;;
51854;SDS011;37895;53.240;6.572;2023-07-16T15:40:48;10.27;;;2.90;;
51854;SDS011;37895;53.240;6.572;2023-07-16T15:45:40;8.57;;;2.72;;
51854;SDS011;37895;53.240;6.572;2023-07-16T15:50:32;10.38;;;2.50;;
51854;SDS011;37895;53.240;6.572;2023-07-16T15:55:23;10.40;;;3.17;;
51854;SDS011;37895;53.240;6.572;2023-07-16T16:00:15;11.30;;;3.08;;
51854;SDS011;37895;53.240;6.572;2023-07-16T16:02:44;7.25;;;2.80;;
51854;SDS011;37895;53.240;6.572;2023-07-16T16:05:10;13.68;;;3.10;;
51854;SDS011;37895;53.240;6.572;2023-07-16T16:10:02;13.38;;;3.17;;
51854;SDS011;37895;53.240;6.572;2023-07-16T16:12:27;9.52;;;2.65;;
51854;SDS011;37895;53.240;6.572;2023-07-16T16:17:19;10.73;;;2.92;;
51854;SDS011;37895;53.240;6.572;2023-07-16T16:19:45;7.50;;;2.17;;
51854;SDS011;37895;53.240;6.572;2023-07-16T16:24:37;7.45;;;2.13;;
51854;SDS011;37895;53.240;6.572;2023-07-16T16:29:28;8.82;;;2.63;;
51854;SDS011;37895;53.240;6.572;2023-07-16T16:34:19;11.57;;;2.17;;
51854;SDS011;37895;53.240;6.572;2023-07-16T16:39:10;8.60;;;2.22;;